createdAt,value
2018-07-01T00:00:50.200Z,935.38
2018-07-01T00:01:50.191Z,935.39
2018-07-01T00:02:50.187Z,935.41
2018-07-01T00:03:50.174Z,935.42
2018-07-01T00:04:50.165Z,935.42
2018-07-01T00:05:50.156Z,935.40
2018-07-01T00:06:50.149Z,935.42
2018-07-01T00:07:50.138Z,935.43
2018-07-01T00:08:50.130Z,935.39
2018-07-01T00:09:50.122Z,935.42
2018-07-01T00:10:50.150Z,935.41
2018-07-01T00:11:50.104Z,935.39
2018-07-01T00:12:50.299Z,935.42
2018-07-01T00:13:50.087Z,935.42
2018-07-01T00:14:50.079Z,935.43
2018-07-01T00:15:50.069Z,935.37
2018-07-01T00:16:50.061Z,935.43
2018-07-01T00:17:50.051Z,935.41
2018-07-01T00:18:50.043Z,935.38
2018-07-01T00:19:50.036Z,935.40
2018-07-01T00:20:50.026Z,935.41
2018-07-01T00:21:50.016Z,935.40
2018-07-01T00:22:50.009Z,935.41
2018-07-01T00:23:50.000Z,935.42
2018-07-01T00:24:49.991Z,935.41
2018-07-01T00:25:49.981Z,935.45
2018-07-01T00:26:49.973Z,935.46
2018-07-01T00:27:49.964Z,935.47
2018-07-01T00:28:49.956Z,935.47
2018-07-01T00:29:49.946Z,935.44
2018-07-01T00:30:49.942Z,935.46
2018-07-01T00:31:49.930Z,935.50
2018-07-01T00:32:49.922Z,935.50
2018-07-01T00:33:49.913Z,935.50
2018-07-01T00:34:49.903Z,935.47
2018-07-01T00:35:49.894Z,935.47
2018-07-01T00:36:49.886Z,935.48
2018-07-01T00:37:49.877Z,935.49
2018-07-01T00:38:49.871Z,935.49
2018-07-01T00:39:49.861Z,935.49
2018-07-01T00:40:49.852Z,935.51
2018-07-01T00:41:49.842Z,935.50
2018-07-01T00:42:49.835Z,935.46
2018-07-01T00:43:49.826Z,935.47
2018-07-01T00:44:49.817Z,935.48
2018-07-01T00:45:49.808Z,935.49
2018-07-01T00:46:49.800Z,935.51
2018-07-01T00:47:49.791Z,935.51
2018-07-01T00:48:49.983Z,935.54
2018-07-01T00:49:49.777Z,935.53
2018-07-01T00:50:49.766Z,935.52
2018-07-01T00:51:49.759Z,935.51
2018-07-01T00:52:49.750Z,935.52
2018-07-01T00:53:49.741Z,935.46
2018-07-01T00:54:49.732Z,935.46
2018-07-01T00:55:49.727Z,935.44
2018-07-01T00:56:49.714Z,935.44
2018-07-01T00:57:49.706Z,935.41
2018-07-01T00:58:49.696Z,935.39
2018-07-01T00:59:49.689Z,935.40
2018-07-01T01:00:49.680Z,935.43
2018-07-01T01:01:49.670Z,935.45
2018-07-01T01:02:49.662Z,935.47
2018-07-01T01:03:49.654Z,935.48
2018-07-01T01:04:49.645Z,935.47
2018-07-01T01:05:49.635Z,935.48
2018-07-01T01:06:49.631Z,935.47
2018-07-01T01:07:49.620Z,935.51
2018-07-01T01:08:49.609Z,935.49
2018-07-01T01:09:49.600Z,935.48
2018-07-01T01:10:49.593Z,935.52
2018-07-01T01:11:49.583Z,935.48
2018-07-01T01:12:49.774Z,935.52
2018-07-01T01:13:49.568Z,935.53
2018-07-01T01:14:49.558Z,935.54
2018-07-01T01:15:49.548Z,935.53
2018-07-01T01:16:49.545Z,935.50
2018-07-01T01:17:49.528Z,935.51
2018-07-01T01:18:49.519Z,935.47
2018-07-01T01:19:49.513Z,935.51
2018-07-01T01:20:49.504Z,935.48
2018-07-01T01:21:49.493Z,935.54
2018-07-01T01:22:49.486Z,935.57
2018-07-01T01:23:49.475Z,935.60
2018-07-01T01:24:49.667Z,935.62
2018-07-01T01:25:49.456Z,935.60
2018-07-01T01:26:49.448Z,935.64
2018-07-01T01:27:49.438Z,935.61
2018-07-01T01:28:49.430Z,935.61
2018-07-01T01:29:49.419Z,935.61
2018-07-01T01:30:49.411Z,935.56
2018-07-01T01:31:49.408Z,935.52
2018-07-01T01:32:49.392Z,935.51
2018-07-01T01:33:49.382Z,935.57
2018-07-01T01:34:49.378Z,935.52
2018-07-01T01:35:49.364Z,935.56
2018-07-01T01:36:49.356Z,935.59
2018-07-01T01:37:49.346Z,935.61
2018-07-01T01:38:49.336Z,935.63
2018-07-01T01:39:49.433Z,935.64
2018-07-01T01:40:49.318Z,935.63
2018-07-01T01:41:49.309Z,935.63
2018-07-01T01:42:49.501Z,935.63
2018-07-01T01:43:49.291Z,935.66
2018-07-01T01:44:49.281Z,935.67
2018-07-01T01:45:49.274Z,935.64
2018-07-01T01:46:49.265Z,935.67
2018-07-01T01:47:49.255Z,935.66
2018-07-01T01:48:49.244Z,935.65
2018-07-01T01:49:49.234Z,935.62
2018-07-01T01:50:49.226Z,935.63
2018-07-01T01:51:49.216Z,935.64
2018-07-01T01:52:49.206Z,935.61
2018-07-01T01:53:49.196Z,935.61
2018-07-01T01:54:49.187Z,935.63
2018-07-01T01:55:49.179Z,935.63
2018-07-01T01:56:49.171Z,935.63
2018-07-01T01:57:49.159Z,935.61
2018-07-01T01:58:49.150Z,935.59
2018-07-01T01:59:49.140Z,935.61
2018-07-01T02:00:49.132Z,935.60
2018-07-01T02:01:49.121Z,935.56
2018-07-01T02:02:49.112Z,935.55
2018-07-01T02:03:49.104Z,935.51
2018-07-01T02:04:49.094Z,935.47
2018-07-01T02:05:49.083Z,935.48
2018-07-01T02:06:49.074Z,935.50
2018-07-01T02:07:49.065Z,935.45
2018-07-01T02:08:49.055Z,935.48
2018-07-01T02:09:49.045Z,935.46
2018-07-01T02:10:49.037Z,935.46
2018-07-01T02:11:49.026Z,935.48
2018-07-01T02:12:49.217Z,935.50
2018-07-01T02:13:49.007Z,935.48
2018-07-01T02:14:48.997Z,935.48
2018-07-01T02:15:48.989Z,935.48
2018-07-01T02:16:48.978Z,935.46
2018-07-01T02:17:48.968Z,935.48
2018-07-01T02:18:48.960Z,935.49
2018-07-01T02:19:48.951Z,935.50
2018-07-01T02:20:48.941Z,935.52
2018-07-01T02:21:48.934Z,935.51
2018-07-01T02:22:48.920Z,935.49
2018-07-01T02:23:48.919Z,935.49
2018-07-01T02:24:48.902Z,935.48
2018-07-01T02:25:48.891Z,935.51
2018-07-01T02:26:48.881Z,935.53
2018-07-01T02:27:48.872Z,935.50
2018-07-01T02:28:48.863Z,935.55
2018-07-01T02:29:48.852Z,935.56
2018-07-01T02:30:48.849Z,935.52
2018-07-01T02:31:48.833Z,935.51
2018-07-01T02:32:48.824Z,935.49
2018-07-01T02:33:48.813Z,935.50
2018-07-01T02:34:48.804Z,935.47
2018-07-01T02:35:48.795Z,935.49
2018-07-01T02:36:48.785Z,935.50
2018-07-01T02:37:48.774Z,935.51
2018-07-01T02:38:48.765Z,935.53
2018-07-01T02:39:48.756Z,935.54
2018-07-01T02:40:48.746Z,935.57
2018-07-01T02:41:48.736Z,935.59
2018-07-01T02:42:48.726Z,935.53
2018-07-01T02:43:48.716Z,935.55
2018-07-01T02:44:48.706Z,935.54
2018-07-01T02:45:48.697Z,935.55
2018-07-01T02:46:48.686Z,935.55
2018-07-01T02:47:48.677Z,935.56
2018-07-01T02:48:48.867Z,935.58
2018-07-01T02:49:48.658Z,935.58
2018-07-01T02:50:48.650Z,935.54
2018-07-01T02:51:48.637Z,935.57
2018-07-01T02:52:48.631Z,935.55
2018-07-01T02:53:48.692Z,935.57
2018-07-01T02:54:48.608Z,935.55
2018-07-01T02:55:48.599Z,935.57
2018-07-01T02:56:48.589Z,935.55
2018-07-01T02:57:48.578Z,935.56
2018-07-01T02:58:48.568Z,935.55
2018-07-01T02:59:48.561Z,935.55
2018-07-01T03:00:48.750Z,935.54
2018-07-01T03:01:48.538Z,935.54
2018-07-01T03:02:48.528Z,935.56
2018-07-01T03:03:48.519Z,935.56
2018-07-01T03:04:48.509Z,935.60
2018-07-01T03:05:48.499Z,935.61
2018-07-01T03:06:48.491Z,935.57
2018-07-01T03:07:48.480Z,935.54
2018-07-01T03:08:48.471Z,935.53
2018-07-01T03:09:48.459Z,935.53
2018-07-01T03:10:48.450Z,935.53
2018-07-01T03:11:48.440Z,935.56
2018-07-01T03:12:48.431Z,935.58
2018-07-01T03:13:48.420Z,935.56
2018-07-01T03:14:48.410Z,935.61
2018-07-01T03:15:48.401Z,935.62
2018-07-01T03:16:48.391Z,935.61
2018-07-01T03:17:48.380Z,935.61
2018-07-01T03:18:48.372Z,935.61
2018-07-01T03:19:48.362Z,935.62
2018-07-01T03:20:48.351Z,935.64
2018-07-01T03:21:48.341Z,935.67
2018-07-01T03:22:48.331Z,935.62
2018-07-01T03:23:48.321Z,935.63
2018-07-01T03:24:48.311Z,935.64
2018-07-01T03:25:48.300Z,935.66
2018-07-01T03:26:48.291Z,935.63
2018-07-01T03:27:48.280Z,935.62
2018-07-01T03:28:48.272Z,935.59
2018-07-01T03:29:48.261Z,935.56
2018-07-01T03:30:48.251Z,935.56
2018-07-01T03:31:48.241Z,935.56
2018-07-01T03:32:48.231Z,935.54
2018-07-01T03:33:48.220Z,935.57
2018-07-01T03:34:48.210Z,935.58
2018-07-01T03:35:48.201Z,935.63
2018-07-01T03:36:48.192Z,935.59
2018-07-01T03:37:48.184Z,935.60
2018-07-01T03:38:48.171Z,935.63
2018-07-01T03:39:48.170Z,935.61
2018-07-01T03:40:48.155Z,935.64
2018-07-01T03:41:48.141Z,935.68
2018-07-01T03:42:48.132Z,935.66
2018-07-01T03:43:48.121Z,935.69
2018-07-01T03:44:48.115Z,935.67
2018-07-01T03:45:48.100Z,935.65
2018-07-01T03:46:48.091Z,935.62
2018-07-01T03:47:48.081Z,935.61
2018-07-01T03:48:48.271Z,935.60
2018-07-01T03:49:48.060Z,935.60
2018-07-01T03:50:48.054Z,935.61
2018-07-01T03:51:48.040Z,935.57
2018-07-01T03:52:48.030Z,935.59
2018-07-01T03:53:48.019Z,935.57
2018-07-01T03:54:48.009Z,935.58
2018-07-01T03:55:48.000Z,935.57
2018-07-01T03:56:47.988Z,935.59
2018-07-01T03:57:47.990Z,935.56
2018-07-01T03:58:47.967Z,935.59
2018-07-01T03:59:47.961Z,935.60
2018-07-01T04:00:47.946Z,935.62
2018-07-01T04:01:47.936Z,935.61
2018-07-01T04:02:47.968Z,935.62
2018-07-01T04:03:47.915Z,935.61
2018-07-01T04:04:47.904Z,935.60
2018-07-01T04:05:47.897Z,935.60
2018-07-01T04:06:48.084Z,935.61
2018-07-01T04:07:47.873Z,935.64
2018-07-01T04:08:47.863Z,935.66
2018-07-01T04:09:47.852Z,935.62
2018-07-01T04:10:47.842Z,935.64
2018-07-01T04:11:47.831Z,935.64
2018-07-01T04:12:48.022Z,935.59
2018-07-01T04:13:47.810Z,935.62
2018-07-01T04:14:47.800Z,935.60
2018-07-01T04:15:47.789Z,935.56
2018-07-01T04:16:47.779Z,935.56
2018-07-01T04:17:47.768Z,935.60
2018-07-01T04:18:47.760Z,935.61
2018-07-01T04:19:47.748Z,935.60
2018-07-01T04:20:47.741Z,935.60
2018-07-01T04:21:47.726Z,935.52
2018-07-01T04:22:47.716Z,935.58
2018-07-01T04:23:47.709Z,935.56
2018-07-01T04:24:47.695Z,935.52
2018-07-01T04:25:47.683Z,935.50
2018-07-01T04:26:47.673Z,935.50
2018-07-01T04:27:47.664Z,935.51
2018-07-01T04:28:47.654Z,935.51
2018-07-01T04:29:47.642Z,935.49
2018-07-01T04:30:47.631Z,935.48
2018-07-01T04:31:47.622Z,935.48
2018-07-01T04:32:47.609Z,935.44
2018-07-01T04:33:47.598Z,935.42
2018-07-01T04:34:47.588Z,935.45
2018-07-01T04:35:47.577Z,935.49
2018-07-01T04:36:47.567Z,935.46
2018-07-01T04:37:47.555Z,935.53
2018-07-01T04:38:47.545Z,935.48
2018-07-01T04:39:47.534Z,935.47
2018-07-01T04:40:47.525Z,935.45
2018-07-01T04:41:47.512Z,935.41
2018-07-01T04:42:47.502Z,935.42
2018-07-01T04:43:47.491Z,935.43
2018-07-01T04:44:47.486Z,935.41
2018-07-01T04:45:47.473Z,935.45
2018-07-01T04:46:47.459Z,935.43
2018-07-01T04:47:47.451Z,935.42
2018-07-01T04:48:47.638Z,935.48
2018-07-01T04:49:47.430Z,935.48
2018-07-01T04:50:47.416Z,935.44
2018-07-01T04:51:47.406Z,935.49
2018-07-01T04:52:47.397Z,935.48
2018-07-01T04:53:47.384Z,935.47
2018-07-01T04:54:47.373Z,935.44
2018-07-01T04:55:47.368Z,935.43
2018-07-01T04:56:47.352Z,935.45
2018-07-01T04:57:47.346Z,935.45
2018-07-01T04:58:47.334Z,935.46
2018-07-01T04:59:47.321Z,935.42
2018-07-01T05:00:47.511Z,935.43
2018-07-01T05:01:47.304Z,935.41
2018-07-01T05:02:47.288Z,935.42
2018-07-01T05:03:47.279Z,935.44
2018-07-01T05:04:47.268Z,935.48
2018-07-01T05:05:47.256Z,935.49
2018-07-01T05:06:47.245Z,935.46
2018-07-01T05:07:47.235Z,935.46
2018-07-01T05:08:47.225Z,935.49
2018-07-01T05:09:47.215Z,935.44
2018-07-01T05:10:47.205Z,935.44
2018-07-01T05:11:47.192Z,935.40
2018-07-01T05:12:47.183Z,935.38
2018-07-01T05:13:47.172Z,935.39
2018-07-01T05:14:47.161Z,935.40
2018-07-01T05:15:47.154Z,935.35
2018-07-01T05:16:47.142Z,935.37
2018-07-01T05:17:47.130Z,935.37
2018-07-01T05:18:47.120Z,935.40
2018-07-01T05:19:47.110Z,935.36
2018-07-01T05:20:47.100Z,935.35
2018-07-01T05:21:47.090Z,935.32
2018-07-01T05:22:47.082Z,935.33
2018-07-01T05:23:47.072Z,935.29
2018-07-01T05:24:47.061Z,935.31
2018-07-01T05:25:47.049Z,935.28
2018-07-01T05:26:47.040Z,935.25
2018-07-01T05:27:47.029Z,935.23
2018-07-01T05:28:47.021Z,935.22
2018-07-01T05:29:47.006Z,935.22
2018-07-01T05:30:46.996Z,935.20
2018-07-01T05:31:46.986Z,935.20
2018-07-01T05:32:46.978Z,935.17
2018-07-01T05:33:46.999Z,935.17
2018-07-01T05:34:46.955Z,935.13
2018-07-01T05:35:46.948Z,935.18
2018-07-01T05:36:46.935Z,935.17
2018-07-01T05:37:46.926Z,935.17
2018-07-01T05:38:46.915Z,935.18
2018-07-01T05:39:46.909Z,935.17
2018-07-01T05:40:46.894Z,935.18
2018-07-01T05:41:46.883Z,935.17
2018-07-01T05:42:47.075Z,935.16
2018-07-01T05:43:46.863Z,935.14
2018-07-01T05:44:46.853Z,935.12
2018-07-01T05:45:46.842Z,935.13
2018-07-01T05:46:46.832Z,935.12
2018-07-01T05:47:46.823Z,935.12
2018-07-01T05:48:46.812Z,935.11
2018-07-01T05:49:46.802Z,935.10
2018-07-01T05:50:46.792Z,935.12
2018-07-01T05:51:46.782Z,935.13
2018-07-01T05:52:46.774Z,935.12
2018-07-01T05:53:46.775Z,935.06
2018-07-01T05:54:46.751Z,935.07
2018-07-01T05:55:46.743Z,935.04
2018-07-01T05:56:46.731Z,935.05
2018-07-01T05:57:46.720Z,935.08
2018-07-01T05:58:46.711Z,935.08
2018-07-01T05:59:46.701Z,935.07
2018-07-01T06:00:46.691Z,935.05
2018-07-01T06:01:46.680Z,935.05
2018-07-01T06:02:46.670Z,935.09
2018-07-01T06:03:46.662Z,935.06
2018-07-01T06:04:46.651Z,935.01
2018-07-01T06:05:46.639Z,935.02
2018-07-01T06:06:46.631Z,935.07
2018-07-01T06:07:46.621Z,935.01
2018-07-01T06:08:46.694Z,935.01
2018-07-01T06:09:46.599Z,935.02
2018-07-01T06:10:46.590Z,935.02
2018-07-01T06:11:46.580Z,935.01
2018-07-01T06:12:46.569Z,934.99
2018-07-01T06:13:46.559Z,935.00
2018-07-01T06:14:46.551Z,934.97
2018-07-01T06:15:46.539Z,934.97
2018-07-01T06:16:46.585Z,934.96
2018-07-01T06:17:46.517Z,934.96
2018-07-01T06:18:46.708Z,934.94
2018-07-01T06:19:46.498Z,934.95
2018-07-01T06:20:46.488Z,934.94
2018-07-01T06:21:46.477Z,934.94
2018-07-01T06:22:46.469Z,934.94
2018-07-01T06:23:46.457Z,934.89
2018-07-01T06:24:46.447Z,934.89
2018-07-01T06:25:46.437Z,934.90
2018-07-01T06:26:46.427Z,934.87
2018-07-01T06:27:46.416Z,934.89
2018-07-01T06:28:46.408Z,934.90
2018-07-01T06:29:46.394Z,934.90
2018-07-01T06:30:46.385Z,934.89
2018-07-01T06:31:46.379Z,934.88
2018-07-01T06:32:46.415Z,934.87
2018-07-01T06:33:46.357Z,934.84
2018-07-01T06:34:46.345Z,934.82
2018-07-01T06:35:46.333Z,934.80
2018-07-01T06:36:46.323Z,934.80
2018-07-01T06:37:46.312Z,934.77
2018-07-01T06:38:46.302Z,934.76
2018-07-01T06:39:46.292Z,934.75
2018-07-01T06:40:46.304Z,934.80
2018-07-01T06:41:46.270Z,934.80
2018-07-01T06:42:46.261Z,934.75
2018-07-01T06:43:46.250Z,934.77
2018-07-01T06:44:46.242Z,934.77
2018-07-01T06:45:46.229Z,934.77
2018-07-01T06:46:46.221Z,934.77
2018-07-01T06:47:46.209Z,934.77
2018-07-01T06:48:46.199Z,934.74
2018-07-01T06:49:46.192Z,934.75
2018-07-01T06:50:46.178Z,934.74
2018-07-01T06:51:46.167Z,934.74
2018-07-01T06:52:46.157Z,934.73
2018-07-01T06:53:46.146Z,934.74
2018-07-01T06:54:46.136Z,934.72
2018-07-01T06:55:46.126Z,934.75
2018-07-01T06:56:46.116Z,934.66
2018-07-01T06:57:46.105Z,934.67
2018-07-01T06:58:46.094Z,934.67
2018-07-01T06:59:46.086Z,934.67
2018-07-01T07:00:46.274Z,934.68
2018-07-01T07:01:46.065Z,934.66
2018-07-01T07:02:46.054Z,934.66
2018-07-01T07:03:46.045Z,934.66
2018-07-01T07:04:46.033Z,934.63
2018-07-01T07:05:46.022Z,934.63
2018-07-01T07:06:46.012Z,934.65
2018-07-01T07:07:46.038Z,934.63
2018-07-01T07:08:45.991Z,934.67
2018-07-01T07:09:45.979Z,934.65
2018-07-01T07:10:45.969Z,934.64
2018-07-01T07:11:45.959Z,934.63
2018-07-01T07:12:46.149Z,934.63
2018-07-01T07:13:45.937Z,934.59
2018-07-01T07:14:45.928Z,934.64
2018-07-01T07:15:45.919Z,934.61
2018-07-01T07:16:45.907Z,934.64
2018-07-01T07:17:45.895Z,934.65
2018-07-01T07:18:45.885Z,934.62
2018-07-01T07:19:45.875Z,934.60
2018-07-01T07:20:45.864Z,934.60
2018-07-01T07:21:45.853Z,934.60
2018-07-01T07:22:45.843Z,934.61
2018-07-01T07:23:45.832Z,934.59
2018-07-01T07:24:46.023Z,934.57
2018-07-01T07:25:45.811Z,934.54
2018-07-01T07:26:45.804Z,934.53
2018-07-01T07:27:45.791Z,934.52
2018-07-01T07:28:45.780Z,934.54
2018-07-01T07:29:45.770Z,934.58
2018-07-01T07:30:45.760Z,934.56
2018-07-01T07:31:45.748Z,934.56
2018-07-01T07:32:45.738Z,934.59
2018-07-01T07:33:45.726Z,934.56
2018-07-01T07:34:45.717Z,934.60
2018-07-01T07:35:45.709Z,934.61
2018-07-01T07:36:45.696Z,934.63
2018-07-01T07:37:45.685Z,934.64
2018-07-01T07:38:45.674Z,934.59
2018-07-01T07:39:45.666Z,934.54
2018-07-01T07:40:45.653Z,934.53
2018-07-01T07:41:45.643Z,934.55
2018-07-01T07:42:45.833Z,934.51
2018-07-01T07:43:45.622Z,934.50
2018-07-01T07:44:45.668Z,934.50
2018-07-01T07:45:45.600Z,934.49
2018-07-01T07:46:45.590Z,934.51
2018-07-01T07:47:45.580Z,934.49
2018-07-01T07:48:45.570Z,934.52
2018-07-01T07:49:45.562Z,934.51
2018-07-01T07:50:45.548Z,934.48
2018-07-01T07:51:45.538Z,934.47
2018-07-01T07:52:45.527Z,934.48
2018-07-01T07:53:45.518Z,934.50
2018-07-01T07:54:45.506Z,934.53
2018-07-01T07:55:45.496Z,934.48
2018-07-01T07:56:45.489Z,934.54
2018-07-01T07:57:45.477Z,934.55
2018-07-01T07:58:45.465Z,934.53
2018-07-01T07:59:45.454Z,934.53
2018-07-01T08:00:45.644Z,934.53
2018-07-01T08:01:45.434Z,934.51
2018-07-01T08:02:45.424Z,934.52
2018-07-01T08:03:45.414Z,934.48
2018-07-01T08:04:45.402Z,934.50
2018-07-01T08:05:45.392Z,934.50
2018-07-01T08:06:45.382Z,934.50
2018-07-01T08:07:45.371Z,934.51
2018-07-01T08:08:45.361Z,934.54
2018-07-01T08:09:45.350Z,934.53
2018-07-01T08:10:45.340Z,934.51
2018-07-01T08:11:45.329Z,934.55
2018-07-01T08:12:45.379Z,934.60
2018-07-01T08:13:45.311Z,934.58
2018-07-01T08:14:45.298Z,934.58
2018-07-01T08:15:45.288Z,934.58
2018-07-01T08:16:45.278Z,934.60
2018-07-01T08:17:45.266Z,934.64
2018-07-01T08:18:45.259Z,934.62
2018-07-01T08:19:45.247Z,934.64
2018-07-01T08:20:45.235Z,934.66
2018-07-01T08:21:45.226Z,934.67
2018-07-01T08:22:45.214Z,934.69
2018-07-01T08:23:45.204Z,934.71
2018-07-01T08:24:45.194Z,934.72
2018-07-01T08:25:45.183Z,934.72
2018-07-01T08:26:45.172Z,934.72
2018-07-01T08:27:45.163Z,934.70
2018-07-01T08:28:45.152Z,934.73
2018-07-01T08:29:45.140Z,934.72
2018-07-01T08:30:45.130Z,934.74
2018-07-01T08:31:45.121Z,934.75
2018-07-01T08:32:45.110Z,934.75
2018-07-01T08:33:45.098Z,934.79
2018-07-01T08:34:45.089Z,934.80
2018-07-01T08:35:45.078Z,934.79
2018-07-01T08:36:45.268Z,934.80
2018-07-01T08:37:45.057Z,934.81
2018-07-01T08:38:45.046Z,934.84
2018-07-01T08:39:45.097Z,934.86
2018-07-01T08:40:45.026Z,934.84
2018-07-01T08:41:45.019Z,934.91
2018-07-01T08:42:45.006Z,934.90
2018-07-01T08:43:44.994Z,934.93
2018-07-01T08:44:44.984Z,934.92
2018-07-01T08:45:44.972Z,934.90
2018-07-01T08:46:44.962Z,934.91
2018-07-01T08:47:44.953Z,934.91
2018-07-01T08:48:44.942Z,934.92
2018-07-01T08:49:44.931Z,934.91
2018-07-01T08:50:44.920Z,934.91
2018-07-01T08:51:44.910Z,934.94
2018-07-01T08:52:44.925Z,934.98
2018-07-01T08:53:44.890Z,934.98
2018-07-01T08:54:45.078Z,935.03
2018-07-01T08:55:44.867Z,935.01
2018-07-01T08:56:44.856Z,934.98
2018-07-01T08:57:44.845Z,935.02
2018-07-01T08:58:44.835Z,935.02
2018-07-01T08:59:44.824Z,935.03
2018-07-01T09:00:44.813Z,935.03
2018-07-01T09:01:44.802Z,935.01
2018-07-01T09:02:44.792Z,934.94
2018-07-01T09:03:44.782Z,934.96
2018-07-01T09:04:44.770Z,934.91
2018-07-01T09:05:44.760Z,934.93
2018-07-01T09:06:44.949Z,934.96
2018-07-01T09:07:44.738Z,934.99
2018-07-01T09:08:44.752Z,934.98
2018-07-01T09:09:44.718Z,935.03
2018-07-01T09:10:44.705Z,935.02
2018-07-01T09:11:44.695Z,935.03
2018-07-01T09:12:44.885Z,935.03
2018-07-01T09:13:44.673Z,935.00
2018-07-01T09:14:44.662Z,935.01
2018-07-01T09:15:44.655Z,935.01
2018-07-01T09:16:44.641Z,935.02
2018-07-01T09:17:44.632Z,935.04
2018-07-01T09:18:44.620Z,935.08
2018-07-01T09:19:44.609Z,935.07
2018-07-01T09:20:44.599Z,935.08
2018-07-01T09:21:44.587Z,935.12
2018-07-01T09:22:44.577Z,935.13
2018-07-01T09:23:44.566Z,935.14
2018-07-01T09:24:44.555Z,935.10
2018-07-01T09:25:44.544Z,935.12
2018-07-01T09:26:44.533Z,935.12
2018-07-01T09:27:44.522Z,935.08
2018-07-01T09:28:44.511Z,935.10
2018-07-01T09:29:44.500Z,935.09
2018-07-01T09:30:44.489Z,935.10
2018-07-01T09:31:44.479Z,935.15
2018-07-01T09:32:44.468Z,935.14
2018-07-01T09:33:44.462Z,935.12
2018-07-01T09:34:44.485Z,935.13
2018-07-01T09:35:44.436Z,935.17
2018-07-01T09:36:44.425Z,935.13
2018-07-01T09:37:44.413Z,935.18
2018-07-01T09:38:44.403Z,935.18
2018-07-01T09:39:44.394Z,935.20
2018-07-01T09:40:44.381Z,935.20
2018-07-01T09:41:44.371Z,935.22
2018-07-01T09:42:44.360Z,935.23
2018-07-01T09:43:44.350Z,935.20
2018-07-01T09:44:44.339Z,935.23
2018-07-01T09:45:44.327Z,935.22
2018-07-01T09:46:44.317Z,935.22
2018-07-01T09:47:44.306Z,935.24
2018-07-01T09:48:44.295Z,935.27
2018-07-01T09:49:44.284Z,935.28
2018-07-01T09:50:44.376Z,935.25
2018-07-01T09:51:44.263Z,935.26
2018-07-01T09:52:44.253Z,935.23
2018-07-01T09:53:44.241Z,935.27
2018-07-01T09:54:44.430Z,935.28
2018-07-01T09:55:44.220Z,935.28
2018-07-01T09:56:44.209Z,935.31
2018-07-01T09:57:44.198Z,935.31
2018-07-01T09:58:44.188Z,935.33
2018-07-01T09:59:44.177Z,935.35
2018-07-01T10:00:44.366Z,935.35
2018-07-01T10:01:44.155Z,935.37
2018-07-01T10:02:44.144Z,935.35
2018-07-01T10:03:44.133Z,935.33
2018-07-01T10:04:44.125Z,935.36
2018-07-01T10:05:44.111Z,935.40
2018-07-01T10:06:44.101Z,935.39
2018-07-01T10:07:44.090Z,935.40
2018-07-01T10:08:44.080Z,935.43
2018-07-01T10:09:44.068Z,935.43
2018-07-01T10:10:44.058Z,935.44
2018-07-01T10:11:44.049Z,935.41
2018-07-01T10:12:44.037Z,935.41
2018-07-01T10:13:44.025Z,935.42
2018-07-01T10:14:44.015Z,935.43
2018-07-01T10:15:44.005Z,935.42
2018-07-01T10:16:43.994Z,935.44
2018-07-01T10:17:43.982Z,935.48
2018-07-01T10:18:44.015Z,935.46
2018-07-01T10:19:43.961Z,935.48
2018-07-01T10:20:43.950Z,935.49
2018-07-01T10:21:43.939Z,935.47
2018-07-01T10:22:43.929Z,935.48
2018-07-01T10:23:43.918Z,935.50
2018-07-01T10:24:43.908Z,935.49
2018-07-01T10:25:43.896Z,935.53
2018-07-01T10:26:43.886Z,935.54
2018-07-01T10:27:43.875Z,935.55
2018-07-01T10:28:43.866Z,935.54
2018-07-01T10:29:43.853Z,935.59
2018-07-01T10:30:43.843Z,935.57
2018-07-01T10:31:43.832Z,935.61
2018-07-01T10:32:43.824Z,935.62
2018-07-01T10:33:43.810Z,935.61
2018-07-01T10:34:43.800Z,935.62
2018-07-01T10:35:43.790Z,935.66
2018-07-01T10:36:43.980Z,935.64
2018-07-01T10:37:43.767Z,935.66
2018-07-01T10:38:43.757Z,935.68
2018-07-01T10:39:43.746Z,935.70
2018-07-01T10:40:43.736Z,935.68
2018-07-01T10:41:43.724Z,935.69
2018-07-01T10:42:43.914Z,935.73
2018-07-01T10:43:43.704Z,935.75
2018-07-01T10:44:43.693Z,935.77
2018-07-01T10:45:43.730Z,935.74
2018-07-01T10:46:43.671Z,935.77
2018-07-01T10:47:43.661Z,935.72
2018-07-01T10:48:43.850Z,935.73
2018-07-01T10:49:43.638Z,935.73
2018-07-01T10:50:43.630Z,935.73
2018-07-01T10:51:43.645Z,935.79
2018-07-01T10:52:43.608Z,935.79
2018-07-01T10:53:43.602Z,935.77
2018-07-01T10:54:43.585Z,935.78
2018-07-01T10:55:43.576Z,935.81
2018-07-01T10:56:43.565Z,935.81
2018-07-01T10:57:43.653Z,935.84
2018-07-01T10:58:43.543Z,935.82
2018-07-01T10:59:43.533Z,935.85
2018-07-01T11:00:43.523Z,935.86
2018-07-01T11:01:43.511Z,935.84
2018-07-01T11:02:43.501Z,935.89
2018-07-01T11:03:43.491Z,935.90
2018-07-01T11:04:43.480Z,935.92
2018-07-01T11:05:43.471Z,935.91
2018-07-01T11:06:43.659Z,935.91
2018-07-01T11:07:43.449Z,935.91
2018-07-01T11:08:43.441Z,935.95
2018-07-01T11:09:43.427Z,935.92
2018-07-01T11:10:43.418Z,935.94
2018-07-01T11:11:43.436Z,935.91
2018-07-01T11:12:43.602Z,935.94
2018-07-01T11:13:43.386Z,935.93
2018-07-01T11:14:43.377Z,935.93
2018-07-01T11:15:43.368Z,935.94
2018-07-01T11:16:43.356Z,935.94
2018-07-01T11:17:43.344Z,935.93
2018-07-01T11:18:43.335Z,935.96
2018-07-01T11:19:43.324Z,935.98
2018-07-01T11:20:43.317Z,935.97
2018-07-01T11:21:43.304Z,936.01
2018-07-01T11:22:43.294Z,936.01
2018-07-01T11:23:43.285Z,936.03
2018-07-01T11:24:43.274Z,936.05
2018-07-01T11:25:43.264Z,936.05
2018-07-01T11:26:43.343Z,936.05
2018-07-01T11:27:43.243Z,936.06
2018-07-01T11:28:43.232Z,936.10
2018-07-01T11:29:43.226Z,936.11
2018-07-01T11:30:43.211Z,936.13
2018-07-01T11:31:43.201Z,936.14
2018-07-01T11:32:43.257Z,936.15
2018-07-01T11:33:43.179Z,936.18
2018-07-01T11:34:43.169Z,936.22
2018-07-01T11:35:43.160Z,936.23
2018-07-01T11:36:43.150Z,936.21
2018-07-01T11:37:43.139Z,936.21
2018-07-01T11:38:43.129Z,936.21
2018-07-01T11:39:43.119Z,936.21
2018-07-01T11:40:43.108Z,936.22
2018-07-01T11:41:43.098Z,936.23
2018-07-01T11:42:43.372Z,936.24
2018-07-01T11:43:43.080Z,936.24
2018-07-01T11:44:43.086Z,936.27
2018-07-01T11:45:43.058Z,936.26
2018-07-01T11:46:43.049Z,936.25
2018-07-01T11:47:43.039Z,936.25
2018-07-01T11:48:43.029Z,936.25
2018-07-01T11:49:43.018Z,936.24
2018-07-01T11:50:43.009Z,936.32
2018-07-01T11:51:42.999Z,936.29
2018-07-01T11:52:42.995Z,936.30
2018-07-01T11:53:42.980Z,936.32
2018-07-01T11:54:43.169Z,936.33
2018-07-01T11:55:42.960Z,936.32
2018-07-01T11:56:42.950Z,936.36
2018-07-01T11:57:42.940Z,936.38
2018-07-01T11:58:42.931Z,936.34
2018-07-01T11:59:42.923Z,936.32
2018-07-01T12:00:42.912Z,936.35
2018-07-01T12:01:42.901Z,936.38
2018-07-01T12:02:42.892Z,936.38
2018-07-01T12:03:42.884Z,936.43
2018-07-01T12:05:02.954Z,936.46
2018-07-01T12:05:42.864Z,936.50
2018-07-01T12:06:43.056Z,936.55
2018-07-01T12:07:42.845Z,936.59
2018-07-01T12:08:42.847Z,936.55
2018-07-01T12:09:42.830Z,936.54
2018-07-01T12:10:42.818Z,936.52
2018-07-01T12:11:42.808Z,936.52
2018-07-01T12:12:42.799Z,936.50
2018-07-01T12:13:42.789Z,936.44
2018-07-01T12:14:42.781Z,936.43
2018-07-01T12:15:42.773Z,936.45
2018-07-01T12:16:42.763Z,936.48
2018-07-01T12:17:42.752Z,936.46
2018-07-01T12:18:42.944Z,936.47
2018-07-01T12:19:42.735Z,936.49
2018-07-01T12:20:42.726Z,936.52
2018-07-01T12:21:42.717Z,936.47
2018-07-01T12:22:42.708Z,936.47
2018-07-01T12:23:42.783Z,936.46
2018-07-01T12:24:42.691Z,936.45
2018-07-01T12:25:42.682Z,936.41
2018-07-01T12:26:42.674Z,936.45
2018-07-01T12:27:42.665Z,936.44
2018-07-01T12:28:42.709Z,936.46